Time;durP1;ratioP1;P1;durP2;ratioP2;P2;SDS_P1;SDS_P2;PMS_P1;PMS_P2;Temp;Humidity;BMP_temperature;BMP_pressure;BME280_temperature;BME280_humidity;BME280_pressure;Samples;Min_cycle;Max_cycle;Signal;HPM_P1;HPM_P2
2023/04/03 00:00:36;;;;;;;6.40;2.95;;;19.60;72.30;;;;;;10495700;28;20094;-24
2023/04/03 00:05:37;;;;;;;5.00;2.95;;;19.50;72.60;;;;;;10494100;28;20040;-24
2023/04/03 00:10:41;;;;;;;4.57;2.75;;;19.50;72.40;;;;;;10492799;28;20074;-23
2023/04/03 00:15:43;;;;;;;3.67;2.08;;;19.50;72.60;;;;;;10492164;28;20155;-24
2023/04/03 00:20:45;;;;;;;4.00;1.98;;;19.50;72.50;;;;;;10498011;28;20045;-24
2023/04/03 00:25:48;;;;;;;4.07;2.03;;;19.40;72.90;;;;;;10489504;28;20068;-23
2023/04/03 00:30:51;;;;;;;8.63;2.75;;;19.40;72.70;;;;;;10492365;28;20048;-23
2023/04/03 00:35:53;;;;;;;4.35;1.90;;;19.40;72.70;;;;;;10492859;28;20056;-24
2023/04/03 00:40:56;;;;;;;5.30;2.25;;;19.30;72.90;;;;;;10494915;28;20072;-25
2023/04/03 00:45:59;;;;;;;3.50;2.00;;;19.30;72.80;;;;;;10491475;28;20691;-24
2023/04/03 00:51:03;;;;;;;3.10;1.95;;;19.30;72.80;;;;;;10490981;28;20138;-23
2023/04/03 00:56:10;;;;;;;3.15;1.90;;;19.30;72.80;;;;;;10489764;28;20136;-24
2023/04/03 01:01:16;;;;;;;2.30;1.52;;;19.20;72.70;;;;;;10497169;28;20393;-25
2023/04/03 01:06:22;;;;;;;4.15;2.63;;;19.20;72.90;;;;;;10488773;28;20572;-24
2023/04/03 01:11:25;;;;;;;4.45;2.15;;;19.20;72.70;;;;;;10483990;28;20106;-23
2023/04/03 01:16:30;;;;;;;3.22;1.77;;;19.10;72.80;;;;;;10481306;28;20056;-24
2023/04/03 01:22:08;;;;;;;3.55;1.98;;;19.10;72.50;;;;;;10488172;28;20053;-25
2023/04/03 01:27:12;;;;;;;3.80;1.95;;;19.10;72.90;;;;;;10485213;28;20048;-24
2023/04/03 01:32:15;;;;;;;4.13;2.20;;;19.00;72.90;;;;;;10484588;28;20044;-24
2023/04/03 01:37:17;;;;;;;4.38;2.15;;;19.00;73.10;;;;;;10484222;28;20040;-24
2023/04/03 01:42:19;;;;;;;2.78;1.75;;;19.00;72.80;;;;;;10490764;28;20121;-23
2023/04/03 01:47:22;;;;;;;5.28;1.65;;;19.00;73.10;;;;;;10487006;28;20047;-24
2023/04/03 01:52:24;;;;;;;3.83;1.92;;;19.00;72.80;;;;;;10496730;28;20072;-24
2023/04/03 01:57:26;;;;;;;3.95;1.70;;;18.90;72.90;;;;;;10487571;28;20079;-24
2023/04/03 02:02:30;;;;;;;2.22;1.58;;;18.90;72.60;;;;;;10487769;28;20083;-23
2023/04/03 02:07:31;;;;;;;2.70;1.30;;;18.90;72.70;;;;;;10491882;28;20046;-23
2023/04/03 02:12:33;;;;;;;2.40;1.30;;;18.90;72.50;;;;;;10487213;28;20053;-24
2023/04/03 02:17:37;;;;;;;2.13;1.17;;;18.90;72.90;;;;;;10488346;28;20143;-25
2023/04/03 02:22:39;;;;;;;2.42;1.33;;;18.80;72.80;;;;;;10482387;28;20352;-25
2023/04/03 02:27:42;;;;;;;3.17;2.05;;;18.80;72.80;;;;;;10491799;28;20044;-24
2023/04/03 02:32:45;;;;;;;1.70;1.30;;;18.80;72.70;;;;;;10502596;28;20459;-22
2023/04/03 02:37:47;;;;;;;2.35;1.40;;;18.80;72.70;;;;;;10495452;28;20094;-24
2023/04/03 02:42:49;;;;;;;3.35;1.58;;;18.70;72.40;;;;;;10495963;28;20082;-24
2023/04/03 02:47:52;;;;;;;2.38;1.33;;;18.70;72.70;;;;;;10494590;28;20579;-24
2023/04/03 02:52:55;;;;;;;2.33;1.40;;;18.70;72.60;;;;;;10492402;28;20118;-24
2023/04/03 02:57:56;;;;;;;2.63;1.55;;;18.70;73.20;;;;;;10497606;28;20493;-28
2023/04/03 03:03:00;;;;;;;2.25;1.10;;;18.60;72.60;;;;;;10497256;28;20504;-24
2023/04/03 03:08:01;;;;;;;2.33;1.17;;;18.60;72.50;;;;;;10498930;28;20157;-24
2023/04/03 03:13:03;;;;;;;2.95;0.90;;;18.60;72.80;;;;;;10497954;28;20059;-24
2023/04/03 03:18:07;;;;;;;1.02;0.90;;;18.60;72.30;;;;;;10494199;28;20570;-24
2023/04/03 03:23:08;;;;;;;2.35;1.13;;;18.60;72.20;;;;;;10504404;28;20047;-24
2023/04/03 03:28:11;;;;;;;1.55;0.95;;;18.50;72.10;;;;;;10491440;28;20464;-23
2023/04/03 03:33:14;;;;;;;1.38;1.20;;;18.50;71.90;;;;;;10492566;28;20055;-23
2023/04/03 03:38:16;;;;;;;2.83;1.10;;;18.50;72.10;;;;;;10495177;28;20097;-24
2023/04/03 03:43:18;;;;;;;1.77;0.90;;;18.50;72.10;;;;;;10497631;28;20079;-24
2023/04/03 03:48:22;;;;;;;1.67;0.93;;;18.50;72.10;;;;;;10490691;28;20044;-24
2023/04/03 03:53:24;;;;;;;0.95;0.60;;;18.50;71.90;;;;;;10488332;28;20057;-24
2023/04/03 03:58:26;;;;;;;2.10;1.23;;;18.40;72.00;;;;;;10492566;28;20048;-23
2023/04/03 04:03:30;;;;;;;1.73;0.67;;;18.40;72.00;;;;;;10496943;28;20040;-23
2023/04/03 04:08:31;;;;;;;1.88;1.20;;;18.40;72.00;;;;;;10508316;28;20545;-22
2023/04/03 04:13:33;;;;;;;1.20;0.80;;;18.30;72.20;;;;;;10495179;28;20467;-23
2023/04/03 04:18:36;;;;;;;1.15;0.75;;;18.30;72.10;;;;;;10502252;28;20091;-24
2023/04/03 04:23:38;;;;;;;0.75;0.47;;;18.30;71.50;;;;;;10496739;28;20154;-25
2023/04/03 04:28:40;;;;;;;0.90;0.60;;;18.20;72.40;;;;;;10498386;28;20048;-26
2023/04/03 04:33:43;;;;;;;1.70;0.90;;;18.30;71.90;;;;;;10506019;28;20152;-23
2023/04/03 04:38:45;;;;;;;1.17;0.70;;;18.30;71.40;;;;;;10494395;28;20102;-24
2023/04/03 04:43:47;;;;;;;0.85;0.68;;;18.40;71.30;;;;;;10490751;28;20072;-23
2023/04/03 04:48:50;;;;;;;1.98;0.70;;;18.40;71.10;;;;;;10490430;28;20068;-23
2023/04/03 04:53:52;;;;;;;1.73;0.70;;;18.50;71.20;;;;;;10488462;28;20080;-24
2023/04/03 04:58:54;;;;;;;0.63;0.43;;;18.50;71.00;;;;;;10495015;28;20879;-27
2023/04/03 05:03:57;;;;;;;1.17;0.52;;;18.50;71.40;;;;;;10491682;28;20091;-24
2023/04/03 05:08:59;;;;;;;0.30;0.30;;;18.50;71.20;;;;;;10492524;28;20048;-23
2023/04/03 05:14:01;;;;;;;0.70;0.40;;;18.50;70.90;;;;;;10489207;28;20068;-24
2023/04/03 05:19:04;;;;;;;1.08;0.60;;;18.50;71.20;;;;;;10496216;28;20512;-24
2023/04/03 05:24:09;;;;;;;0.63;0.55;;;18.50;71.10;;;;;;10491018;28;20396;-24
2023/04/03 05:29:11;;;;;;;0.95;0.52;;;18.50;71.40;;;;;;10489488;28;20464;-24
2023/04/03 05:34:14;;;;;;;3.10;1.33;;;18.50;71.10;;;;;;10489147;28;20053;-24
2023/04/03 05:39:16;;;;;;;0.60;0.60;;;18.50;71.60;;;;;;10490754;28;20045;-24
2023/04/03 05:44:18;;;;;;;0.68;0.50;;;18.50;71.10;;;;;;10486060;28;20132;-23
2023/04/03 05:49:21;;;;;;;0.65;0.55;;;18.50;71.40;;;;;;10477543;28;20550;-24
2023/04/03 05:54:25;;;;;;;1.05;0.57;;;18.50;71.20;;;;;;10485255;28;20171;-24
2023/04/03 05:59:27;;;;;;;1.98;0.70;;;18.50;71.20;;;;;;10486893;28;20053;-24
2023/04/03 06:15:29;;;;;;;1.15;0.75;;;18.70;69.90;;;;;;10543642;27;20116;-24
2023/04/03 06:20:31;;;;;;;1.00;0.70;;;18.50;71.00;;;;;;10518657;28;20128;-23
2023/04/03 06:25:33;;;;;;;2.10;0.60;;;18.50;71.00;;;;;;10528655;28;20040;-24
2023/04/03 06:30:37;;;;;;;1.73;0.40;;;18.50;70.90;;;;;;10521062;28;20059;-23
2023/04/03 06:35:39;;;;;;;2.45;0.90;;;18.60;70.80;;;;;;10523395;28;20151;-24
2023/04/03 06:40:41;;;;;;;1.73;1.05;;;18.50;71.10;;;;;;10515497;28;20090;-23
2023/04/03 06:45:44;;;;;;;3.72;0.70;;;18.50;71.50;;;;;;10523131;28;20051;-24
2023/04/03 06:50:46;;;;;;;2.30;0.90;;;18.50;71.70;;;;;;10518377;28;20617;-24
2023/04/03 06:55:48;;;;;;;1.75;1.10;;;18.40;72.30;;;;;;10519480;28;20067;-24
2023/04/03 07:00:51;;;;;;;3.83;1.63;;;18.30;72.60;;;;;;10515203;28;20052;-24
2023/04/03 07:05:53;;;;;;;5.43;3.03;;;18.20;72.90;;;;;;10523654;28;20071;-24
2023/04/03 07:10:56;;;;;;;4.95;2.67;;;18.20;73.00;;;;;;10514393;28;20056;-24
2023/04/03 07:16:00;;;;;;;7.75;3.60;;;18.30;72.40;;;;;;10514650;28;20774;-24
2023/04/03 07:21:02;;;;;;;6.47;3.20;;;18.30;72.00;;;;;;10517308;28;20051;-25
2023/04/03 07:26:04;;;;;;;3.58;1.10;;;18.30;71.60;;;;;;10496913;28;20079;-24
2023/04/03 07:31:11;;;;;;;1.02;0.50;;;18.30;71.10;;;;;;10492188;28;20052;-25
2023/04/03 07:36:17;;;;;;;9.45;3.25;;;18.40;70.50;;;;;;10494131;28;20048;-23
2023/04/03 07:41:22;;;;;;;12.07;4.78;;;18.40;69.90;;;;;;10503788;28;20050;-24
2023/04/03 07:46:25;;;;;;;8.82;4.40;;;18.50;69.40;;;;;;10492463;28;20079;-23
2023/04/03 07:51:29;;;;;;;4.28;2.40;;;18.50;69.10;;;;;;10489252;28;20055;-24
2023/04/03 07:56:31;;;;;;;6.57;4.32;;;18.60;68.90;;;;;;10494047;28;20045;-24
2023/04/03 08:01:35;;;;;;;3.75;1.95;;;18.60;68.30;;;;;;10493885;28;20127;-22
2023/04/03 08:06:37;;;;;;;3.78;2.00;;;18.40;70.00;;;;;;10502918;28;20131;-23
2023/04/03 08:11:40;;;;;;;7.30;3.95;;;18.20;70.50;;;;;;10488899;28;20494;-24
2023/04/03 08:16:43;;;;;;;8.82;3.95;;;18.50;68.30;;;;;;10488918;28;20833;-24
2023/04/03 08:21:46;;;;;;;4.45;2.50;;;18.50;68.20;;;;;;10491487;28;20166;-23
2023/04/03 08:26:48;;;;;;;5.57;3.38;;;18.40;69.20;;;;;;10491559;28;20519;-23
2023/04/03 08:31:51;;;;;;;4.15;2.10;;;18.50;68.70;;;;;;10492199;28;20540;-26
2023/04/03 08:36:53;;;;;;;7.97;3.88;;;18.80;66.20;;;;;;10506299;28;20047;-24
2023/04/03 08:41:58;;;;;;;7.45;3.72;;;18.80;65.90;;;;;;10492895;28;20074;-27
2023/04/03 08:47:18;;;;;;;3.72;2.15;;;18.80;66.70;;;;;;10487978;28;20044;-25
2023/04/03 08:52:23;;;;;;;5.13;2.05;;;18.60;67.30;;;;;;10485402;28;20048;-24
2023/04/03 08:57:31;;;;;;;4.32;2.03;;;18.70;66.40;;;;;;10486980;28;20139;-25
2023/04/03 09:02:42;;;;;;;3.28;1.60;;;18.80;66.00;;;;;;10488476;28;20050;-25
2023/04/03 09:07:47;;;;;;;3.58;1.80;;;18.80;66.70;;;;;;10491985;28;20062;-25
2023/04/03 09:12:56;;;;;;;7.05;2.72;;;18.90;63.50;;;;;;10490078;28;20603;-24
2023/04/03 09:18:05;;;;;;;2.90;2.03;;;19.00;66.00;;;;;;10485680;28;20053;-23
2023/04/03 09:23:17;;;;;;;3.67;1.98;;;19.00;65.70;;;;;;10487049;28;20064;-24
2023/04/03 09:28:20;;;;;;;3.42;2.13;;;19.10;63.40;;;;;;10491792;28;20040;-24
2023/04/03 09:33:23;;;;;;;;;;;19.00;63.50;;;;;;10485212;28;20060;-28
2023/04/03 09:38:25;;;;;;;2.65;1.52;;;19.00;68.00;;;;;;10489178;28;19936;-22
2023/04/03 09:43:30;;;;;;;2.63;1.08;;;19.20;68.00;;;;;;10486105;28;20068;-24
2023/04/03 09:48:33;;;;;;;1.92;0.90;;;18.80;65.80;;;;;;10488460;28;20051;-24
2023/04/03 09:53:37;;;;;;;3.38;1.50;;;19.10;67.40;;;;;;10487374;28;20063;-24
2023/04/03 09:58:41;;;;;;;2.08;1.25;;;19.50;59.60;;;;;;10489069;28;20074;-24
2023/04/03 10:03:46;;;;;;;3.65;1.45;;;19.40;66.20;;;;;;10488391;28;20044;-23
2023/04/03 10:09:00;;;;;;;2.50;0.80;;;19.40;60.00;;;;;;10486001;28;20040;-23
2023/04/03 10:14:05;;;;;;;3.55;1.27;;;19.20;67.80;;;;;;10480049;28;20122;-23
2023/04/03 10:19:22;;;;;;;3.67;1.40;;;19.10;67.30;;;;;;10483776;28;20630;-24
2023/04/03 10:24:29;;;;;;;3.05;1.50;;;19.10;68.00;;;;;;10486677;28;20477;-24
2023/04/03 10:29:47;;;;;;;4.05;1.80;;;19.60;62.90;;;;;;10500918;28;20037;-22
2023/04/03 10:34:54;;;;;;;3.75;0.95;;;19.40;65.20;;;;;;10487954;28;20080;-23
2023/04/03 10:40:02;;;;;;;1.63;0.70;;;19.00;68.30;;;;;;10485590;28;20488;-23
2023/04/03 10:45:21;;;;;;;2.60;0.90;;;19.30;57.20;;;;;;10486751;28;20155;-23
2023/04/03 10:50:40;;;;;;;1.45;0.73;;;19.40;65.90;;;;;;10487442;28;20048;-23
2023/04/03 10:55:47;;;;;;;2.38;0.50;;;19.60;62.50;;;;;;10485736;28;20146;-24
2023/04/03 11:00:52;;;;;;;2.58;0.70;;;19.70;64.30;;;;;;10491354;28;20124;-24
2023/04/03 11:05:57;;;;;;;1.65;0.65;;;19.90;58.80;;;;;;10503862;28;20060;-25
2023/04/03 11:11:02;;;;;;;1.30;0.90;;;19.70;57.70;;;;;;10492490;28;20060;-24
2023/04/03 11:16:06;;;;;;;1.38;0.90;;;19.60;64.50;;;;;;10482531;28;20163;-24
2023/04/03 11:21:17;;;;;;;0.93;0.65;;;19.90;61.90;;;;;;10487613;28;20063;-24
2023/04/03 11:26:22;;;;;;;1.48;0.90;;;20.00;59.80;;;;;;10489910;28;20849;-24
2023/04/03 11:31:37;;;;;;;3.10;0.88;;;19.80;61.60;;;;;;10499297;28;20101;-24
2023/04/03 11:36:45;;;;;;;2.10;1.23;;;19.60;61.80;;;;;;10494132;28;20203;-24
2023/04/03 11:41:48;;;;;;;1.65;0.88;;;20.00;59.20;;;;;;10491414;28;20067;-24
2023/04/03 11:46:52;;;;;;;2.80;0.90;;;19.70;57.30;;;;;;10490910;28;20076;-23
2023/04/03 11:51:56;;;;;;;3.30;1.23;;;19.80;61.70;;;;;;10492361;28;20092;-23
2023/04/03 11:56:58;;;;;;;2.13;0.70;;;19.90;58.20;;;;;;10490319;28;20530;-24
2023/04/03 12:02:00;;;;;;;3.08;1.25;;;19.90;61.40;;;;;;10494673;28;20049;-23
2023/04/03 12:07:19;;;;;;;1.67;0.60;;;20.00;57.90;;;;;;10492533;28;20052;-24
2023/04/03 12:12:40;;;;;;;1.63;0.70;;;20.00;54.40;;;;;;10491639;28;20055;-25
2023/04/03 12:17:42;;;;;;;1.15;0.70;;;19.90;53.00;;;;;;10488972;28;20070;-25
2023/04/03 12:23:07;;;;;;;;;;;19.90;58.60;;;;;;10485969;28;20080;-25
2023/04/03 12:28:12;;;;;;;1.95;0.85;;;20.20;51.90;;;;;;10485383;28;20007;-24
2023/04/03 12:33:25;;;;;;;1.20;0.98;;;20.10;55.00;;;;;;10491555;28;20048;-25
2023/04/03 12:38:42;;;;;;;1.85;0.93;;;20.20;58.30;;;;;;10501157;28;20049;-25
2023/04/03 12:43:56;;;;;;;1.77;0.95;;;19.60;55.70;;;;;;10481100;28;20048;-24
2023/04/03 12:49:00;;;;;;;1.27;0.60;;;20.50;61.70;;;;;;10503466;28;20040;-24
2023/04/03 12:54:14;;;;;;;1.25;0.93;;;20.80;60.70;;;;;;10493389;28;20074;-25
2023/04/03 12:59:19;;;;;;;8.63;3.20;;;20.60;59.50;;;;;;10487646;28;20168;-24
2023/04/03 13:04:21;;;;;;;21.75;6.93;;;20.30;53.00;;;;;;10491073;28;20437;-24
2023/04/03 13:09:27;;;;;;;27.02;8.07;;;20.90;50.80;;;;;;10500544;28;20040;-24
2023/04/03 13:14:30;;;;;;;28.67;8.35;;;21.10;52.20;;;;;;10496240;28;20056;-24
2023/04/03 13:19:32;;;;;;;29.00;7.97;;;20.70;58.40;;;;;;10481732;28;20048;-25
2023/04/03 13:24:38;;;;;;;22.52;7.10;;;21.20;53.50;;;;;;10486870;28;20139;-25
2023/04/03 13:29:41;;;;;;;21.27;7.38;;;21.10;51.40;;;;;;10502548;28;20106;-24
2023/04/03 13:34:44;;;;;;;17.27;6.10;;;21.50;57.60;;;;;;10487397;28;20098;-23
2023/04/03 13:39:59;;;;;;;14.68;4.95;;;21.60;53.40;;;;;;10488795;28;20052;-24
2023/04/03 13:45:19;;;;;;;15.10;5.10;;;21.10;56.60;;;;;;10485826;28;20507;-27
2023/04/03 13:50:25;;;;;;;13.70;4.45;;;21.80;54.50;;;;;;10483051;28;20666;-24
2023/04/03 13:55:31;;;;;;;12.02;4.20;;;22.00;50.20;;;;;;10478595;28;20492;-25
2023/04/03 14:00:38;;;;;;;10.23;4.47;;;21.80;54.50;;;;;;10481407;28;20152;-25
2023/04/03 14:05:40;;;;;;;4.85;2.55;;;22.00;53.40;;;;;;10488247;28;20044;-24
2023/04/03 14:10:44;;;;;;;3.08;1.13;;;21.80;44.80;;;;;;10489481;28;20478;-26
2023/04/03 14:15:48;;;;;;;7.85;2.38;;;21.90;43.60;;;;;;10484802;28;20087;-25
2023/04/03 14:20:50;;;;;;;6.13;1.67;;;21.90;52.70;;;;;;10486208;28;20481;-26
2023/04/03 14:25:54;;;;;;;6.82;2.42;;;22.20;52.50;;;;;;10488988;28;20078;-26
2023/04/03 14:30:56;;;;;;;6.57;2.47;;;22.40;53.50;;;;;;10486239;28;20040;-24
2023/04/03 14:35:58;;;;;;;8.50;2.60;;;22.50;54.20;;;;;;10493917;28;20054;-24
2023/04/03 14:41:01;;;;;;;4.93;1.98;;;22.50;56.00;;;;;;10491584;28;20489;-25
2023/04/03 14:46:03;;;;;;;7.00;2.58;;;22.80;51.00;;;;;;10492247;28;20044;-25
2023/04/03 14:51:05;;;;;;;4.53;1.90;;;22.80;54.90;;;;;;10496829;28;20191;-24
2023/04/03 14:56:15;;;;;;;5.97;1.77;;;23.00;51.50;;;;;;10494429;28;20432;-25
2023/04/03 15:01:17;;;;;;;6.13;1.42;;;22.90;53.90;;;;;;10490606;28;20068;-24
2023/04/03 15:06:19;;;;;;;6.55;1.38;;;23.00;51.90;;;;;;10500419;28;20072;-25
2023/04/03 15:11:23;;;;;;;3.97;1.60;;;23.30;52.60;;;;;;10479382;28;20052;-25
2023/04/03 15:16:25;;;;;;;4.38;1.33;;;23.50;53.50;;;;;;10494671;28;20054;-25
2023/04/03 15:21:27;;;;;;;5.25;1.90;;;23.70;57.80;;;;;;10493009;28;20083;-24
2023/04/03 15:26:31;;;;;;;4.60;1.88;;;23.90;53.00;;;;;;10492888;28;20045;-25
2023/04/03 15:31:33;;;;;;;4.00;1.63;;;23.90;54.20;;;;;;10495049;28;20068;-24
2023/04/03 15:36:35;;;;;;;5.63;1.67;;;24.00;56.30;;;;;;10498168;28;20048;-25
2023/04/03 15:41:38;;;;;;;4.78;1.73;;;24.20;51.60;;;;;;10506443;28;20037;-25
2023/04/03 15:46:40;;;;;;;5.47;2.17;;;24.20;53.90;;;;;;10492239;28;20047;-24
2023/04/03 15:51:42;;;;;;;7.20;1.60;;;24.30;51.10;;;;;;10490830;28;20098;-25
2023/04/03 15:56:46;;;;;;;5.03;1.67;;;24.20;51.70;;;;;;10490066;28;20048;-26
2023/04/03 16:01:49;;;;;;;5.60;2.15;;;25.00;49.80;;;;;;10490542;28;20480;-25
2023/04/03 16:06:51;;;;;;;6.15;2.28;;;26.00;52.80;;;;;;10493835;28;20404;-27
2023/04/03 16:11:56;;;;;;;3.70;2.25;;;25.30;56.20;;;;;;10480921;28;20168;-25
2023/04/03 16:16:58;;;;;;;5.70;2.13;;;25.00;51.70;;;;;;10491959;28;20064;-25
2023/04/03 16:22:00;;;;;;;2.33;1.60;;;25.10;52.20;;;;;;10488932;28;20124;-25
2023/04/03 16:27:03;;;;;;;;;;;25.40;53.80;;;;;;10484795;28;20087;-24
2023/04/03 16:32:05;;;;;;;6.95;1.90;;;25.40;56.70;;;;;;10484237;28;20015;-25
2023/04/03 16:37:08;;;;;;;;;;;25.80;94.20;;;;;;10492809;28;20052;-25
2023/04/03 16:42:11;;;;;;;3.03;1.75;;;26.40;63.40;;;;;;10494057;28;20281;-25
2023/04/03 16:47:13;;;;;;;7.57;3.63;;;26.90;70.50;;;;;;10490272;28;20044;-25
2023/04/03 16:52:15;;;;;;;9.75;2.90;;;26.80;92.80;;;;;;10482670;28;20044;-25
2023/04/03 16:57:20;;;;;;;5.88;2.65;;;27.10;61.80;;;;;;10482149;28;20140;-25
2023/04/03 17:02:24;;;;;;;10.95;3.47;;;26.90;68.40;;;;;;10476809;28;20097;-25
2023/04/03 17:07:26;;;;;;;7.82;2.78;;;27.40;99.90;;;;;;10504614;28;20040;-26
2023/04/03 17:12:30;;;;;;;7.40;2.63;;;27.30;92.50;;;;;;10505632;28;20092;-25
2023/04/03 17:17:32;;;;;;;7.93;2.60;;;27.60;80.00;;;;;;10489226;28;20052;-24
2023/04/03 17:22:34;;;;;;;6.07;1.98;;;27.50;99.90;;;;;;10488527;28;20091;-25
2023/04/03 17:27:38;;;;;;;3.60;1.73;;;27.60;86.50;;;;;;10487253;28;20464;-23
2023/04/03 17:32:39;;;;;;;9.65;2.33;;;26.40;55.80;;;;;;10487474;28;20076;-25
2023/04/03 17:37:41;;;;;;;;;;;26.10;53.80;;;;;;10484967;28;20143;-24
2023/04/03 17:42:44;;;;;;;4.03;1.73;;;26.20;52.50;;;;;;10478192;28;19934;-23
2023/04/03 17:47:46;;;;;;;4.50;1.35;;;26.10;53.80;;;;;;10488792;28;20048;-26
2023/04/03 17:52:48;;;;;;;;;;;26.10;53.60;;;;;;10485930;28;20501;-25
2023/04/03 17:57:51;;;;;;;4.53;1.48;;;26.10;51.90;;;;;;10486152;28;20572;-25
2023/04/03 18:02:53;;;;;;;2.67;1.30;;;26.20;51.80;;;;;;10488360;28;20129;-25
2023/04/03 18:07:57;;;;;;;3.28;1.50;;;26.00;52.60;;;;;;10488638;28;20155;-23
2023/04/03 18:13:00;;;;;;;6.47;2.03;;;25.80;52.50;;;;;;10485534;28;20088;-25
2023/04/03 18:18:02;;;;;;;4.13;1.40;;;25.60;52.40;;;;;;10484981;28;20122;-25
2023/04/03 18:23:05;;;;;;;4.55;1.27;;;25.70;51.70;;;;;;10483282;28;20060;-26
2023/04/03 18:28:08;;;;;;;5.63;2.00;;;25.50;51.70;;;;;;10481886;28;20404;-26
2023/04/03 18:33:10;;;;;;;5.10;1.40;;;25.50;51.40;;;;;;10486049;28;20083;-25
2023/04/03 18:38:13;;;;;;;6.40;0.93;;;25.10;51.80;;;;;;10486758;28;20118;-26
2023/04/03 18:43:16;;;;;;;4.40;1.42;;;25.20;51.90;;;;;;10488190;28;20477;-24
2023/04/03 18:48:20;;;;;;;4.47;1.25;;;25.00;51.70;;;;;;10488451;28;20048;-24
2023/04/03 18:53:22;;;;;;;6.97;2.00;;;24.90;52.10;;;;;;10481122;28;20041;-24
2023/04/03 18:58:26;;;;;;;5.95;1.52;;;24.80;51.70;;;;;;10491735;28;20044;-24
2023/04/03 19:03:28;;;;;;;4.65;1.20;;;24.60;51.90;;;;;;10483900;28;20091;-24
2023/04/03 19:08:30;;;;;;;7.53;1.63;;;24.50;51.60;;;;;;10484222;28;20048;-26
2023/04/03 19:13:33;;;;;;;3.10;1.42;;;24.40;52.20;;;;;;10483542;28;20088;-25
2023/04/03 19:18:35;;;;;;;8.23;2.47;;;24.30;52.20;;;;;;10483611;28;20044;-25
2023/04/03 19:23:37;;;;;;;;;;;24.20;52.40;;;;;;10492443;28;20040;-25
2023/04/03 19:28:41;;;;;;;9.53;2.47;;;24.10;52.30;;;;;;10492507;28;19964;-28
2023/04/03 19:33:43;;;;;;;4.25;1.55;;;23.90;52.60;;;;;;10492103;28;20050;-24
2023/04/03 19:38:45;;;;;;;4.38;1.85;;;23.80;53.10;;;;;;10495352;28;20131;-24
2023/04/03 19:43:50;;;;;;;3.85;1.67;;;23.70;53.20;;;;;;10492745;28;20093;-26
2023/04/03 19:48:52;;;;;;;7.10;2.58;;;23.60;53.20;;;;;;10490995;28;20471;-25
2023/04/03 19:53:53;;;;;;;;;;;23.50;53.40;;;;;;10499893;28;20526;-25
2023/04/03 19:58:57;;;;;;;10.95;3.90;;;23.40;53.50;;;;;;10491214;28;20014;-26
2023/04/03 20:03:58;;;;;;;9.32;4.40;;;23.30;54.00;;;;;;10493620;28;20478;-24
2023/04/03 20:09:00;;;;;;;13.02;5.93;;;23.20;54.20;;;;;;10488889;28;20072;-24
2023/04/03 20:14:04;;;;;;;;;;;23.20;54.30;;;;;;10487809;28;20053;-25
2023/04/03 20:19:06;;;;;;;10.45;4.68;;;23.10;54.30;;;;;;10485763;28;20010;-24
2023/04/03 20:24:08;;;;;;;15.18;6.25;;;23.00;55.00;;;;;;10488816;28;20161;-22
2023/04/03 20:29:13;;;;;;;10.18;5.03;;;22.90;55.00;;;;;;10492621;28;20323;-24
2023/04/03 20:34:15;;;;;;;15.27;5.72;;;22.80;55.70;;;;;;10491376;28;20048;-23
2023/04/03 20:39:18;;;;;;;12.75;6.68;;;22.70;55.60;;;;;;10492062;28;20040;-22
2023/04/03 20:44:21;;;;;;;17.02;7.90;;;22.60;55.80;;;;;;10495292;28;20404;-24
2023/04/03 20:49:23;;;;;;;12.10;6.15;;;22.60;56.40;;;;;;10492784;28;20560;-24
2023/04/03 20:54:25;;;;;;;12.02;6.47;;;22.50;56.70;;;;;;10492140;28;20543;-24
2023/04/03 20:59:30;;;;;;;18.10;8.63;;;22.30;58.20;;;;;;10494659;28;20067;-24
2023/04/03 21:04:38;;;;;;;20.02;9.70;;;22.10;58.40;;;;;;10491695;28;20500;-25
2023/04/03 21:10:17;;;;;;;15.90;8.05;;;22.00;59.20;;;;;;10490530;28;20040;-26
2023/04/03 21:15:46;;;;;;;18.95;9.63;;;21.90;59.30;;;;;;10492825;28;20789;-24
2023/04/03 21:20:50;;;;;;;21.10;10.45;;;21.70;59.60;;;;;;10471518;28;20132;-25
2023/04/03 21:25:52;;;;;;;10.95;5.90;;;21.60;58.70;;;;;;10486832;28;20052;-25
2023/04/03 21:30:53;;;;;;;9.13;5.20;;;21.60;58.20;;;;;;10486163;28;20139;-24
2023/04/03 21:35:58;;;;;;;9.00;4.63;;;21.60;58.30;;;;;;10489931;28;20449;-24
2023/04/03 21:41:00;;;;;;;10.18;5.00;;;21.60;58.30;;;;;;10499288;28;20136;-24
2023/04/03 21:46:04;;;;;;;;;;;21.40;58.50;;;;;;10468978;28;20054;-24
2023/04/03 21:51:07;;;;;;;8.90;3.78;;;21.40;58.70;;;;;;10486879;28;19935;-23
2023/04/03 21:56:10;;;;;;;9.70;4.65;;;21.40;58.80;;;;;;10486275;28;20067;-24
2023/04/03 22:01:13;;;;;;;11.82;5.28;;;21.30;58.80;;;;;;10486290;28;20131;-24
2023/04/03 22:06:16;;;;;;;11.15;4.93;;;21.20;59.10;;;;;;10489594;28;20102;-24
2023/04/03 22:11:21;;;;;;;11.23;5.32;;;21.20;59.20;;;;;;10487781;28;20068;-25
2023/04/03 22:16:23;;;;;;;10.32;5.10;;;21.10;59.30;;;;;;10484520;28;20052;-24
2023/04/03 22:21:26;;;;;;;;;;;21.10;59.50;;;;;;10481352;28;20048;-26
2023/04/03 22:26:28;;;;;;;11.98;5.63;;;21.10;59.50;;;;;;10483447;28;19963;-24
2023/04/03 22:31:30;;;;;;;9.68;3.92;;;21.00;59.70;;;;;;10495995;28;20133;-24
2023/04/03 22:36:33;;;;;;;9.60;4.90;;;20.90;59.80;;;;;;10484661;28;20060;-22
2023/04/03 22:41:35;;;;;;;8.98;4.63;;;20.90;59.80;;;;;;10483801;28;20488;-24
2023/04/03 22:46:37;;;;;;;5.78;3.25;;;20.80;60.00;;;;;;10482206;28;20131;-24
2023/04/03 22:51:40;;;;;;;7.95;4.05;;;20.80;60.10;;;;;;10480770;28;20080;-25
2023/04/03 22:56:42;;;;;;;9.02;5.20;;;20.80;60.20;;;;;;10487776;28;20479;-24
2023/04/03 23:01:44;;;;;;;8.90;3.88;;;20.70;60.10;;;;;;10483102;28;20076;-24
2023/04/03 23:06:47;;;;;;;9.90;5.63;;;20.70;60.30;;;;;;10486023;28;20055;-24
2023/04/03 23:11:49;;;;;;;10.07;4.35;;;20.60;60.60;;;;;;10491631;28;20072;-25
2023/04/03 23:16:51;;;;;;;11.20;5.20;;;20.60;60.40;;;;;;10487706;28;20053;-21
2023/04/03 23:21:55;;;;;;;8.27;4.55;;;20.50;60.80;;;;;;10489220;28;20132;-25
2023/04/03 23:26:57;;;;;;;6.40;3.53;;;20.50;60.70;;;;;;10494969;28;20056;-23
2023/04/03 23:31:58;;;;;;;5.80;3.60;;;20.50;60.80;;;;;;10495608;28;20619;-24
2023/04/03 23:37:02;;;;;;;6.75;4.05;;;20.40;60.90;;;;;;10494327;28;20506;-26
2023/04/03 23:42:07;;;;;;;6.40;4.07;;;20.30;61.10;;;;;;10497410;28;20056;-24
2023/04/03 23:47:09;;;;;;;9.57;3.45;;;20.30;61.10;;;;;;10491591;28;20052;-24
2023/04/03 23:52:13;;;;;;;5.88;3.60;;;20.30;61.00;;;;;;10489461;28;20079;-25
2023/04/03 23:57:15;;;;;;;6.63;3.53;;;20.30;61.10;;;;;;10492852;28;20209;-24
